createdAt,value
2022-12-23T00:02:23.719Z,9.20
2022-12-23T00:04:50.861Z,9.20
2022-12-23T00:07:17.955Z,9.18
2022-12-23T00:09:44.973Z,9.17
2022-12-23T00:12:30.816Z,9.17
2022-12-23T00:15:07.268Z,9.17
2022-12-23T00:17:52.413Z,9.18
2022-12-23T00:20:19.998Z,9.17
2022-12-23T00:23:06.746Z,9.17
2022-12-23T00:25:40.786Z,9.15
2022-12-23T00:28:12.769Z,9.16
2022-12-23T00:30:55.612Z,9.17
2022-12-23T00:33:27.153Z,9.17
2022-12-23T00:35:55.419Z,9.15
2022-12-23T00:38:41.490Z,9.16
2022-12-23T00:41:37.708Z,9.16
2022-12-23T00:44:05.327Z,9.17
2022-12-23T00:46:32.772Z,9.18
2022-12-23T00:49:18.564Z,9.18
2022-12-23T00:51:45.755Z,9.17
2022-12-23T00:54:12.897Z,9.18
2022-12-23T00:56:40.030Z,9.18
2022-12-23T00:59:07.257Z,9.18
2022-12-23T01:01:53.533Z,9.18
2022-12-23T01:04:39.536Z,9.18
2022-12-23T01:07:07.515Z,9.14
2022-12-23T01:09:35.711Z,9.17
2022-12-23T01:12:03.437Z,9.18
2022-12-23T01:14:30.900Z,9.16
2022-12-23T01:16:58.089Z,9.18
2022-12-23T01:19:25.410Z,9.17
2022-12-23T01:21:52.462Z,9.15
2022-12-23T01:24:20.205Z,9.17
2022-12-23T01:26:47.296Z,9.16
2022-12-23T01:29:14.559Z,9.17
2022-12-23T01:31:41.703Z,9.18
2022-12-23T01:34:09.016Z,9.17
2022-12-23T01:36:36.389Z,9.17
2022-12-23T01:39:03.628Z,9.18
2022-12-23T01:41:52.342Z,9.18
2022-12-23T01:44:56.641Z,9.18
2022-12-23T01:47:45.256Z,9.15
2022-12-23T01:50:26.853Z,9.15
2022-12-23T01:53:16.908Z,9.15
2022-12-23T01:56:00.414Z,9.15
2022-12-23T01:58:47.041Z,9.17
2022-12-23T02:01:33.397Z,9.15
2022-12-23T02:04:07.278Z,9.14
2022-12-23T02:06:59.808Z,9.15
2022-12-23T02:09:33.814Z,9.13
2022-12-23T02:12:36.350Z,9.12
2022-12-23T02:15:48.919Z,9.12
2022-12-23T02:18:41.277Z,9.14
2022-12-23T02:21:57.812Z,9.14
2022-12-23T02:24:55.784Z,9.05
2022-12-23T02:28:16.198Z,9.12
2022-12-23T02:30:48.813Z,9.13
2022-12-23T02:33:24.999Z,9.13
2022-12-23T02:35:52.379Z,9.14
2022-12-23T02:38:52.236Z,9.13
2022-12-23T02:41:48.900Z,9.10
2022-12-23T02:44:36.159Z,9.09
2022-12-23T02:47:13.079Z,9.10
2022-12-23T02:49:45.635Z,9.10
2022-12-23T02:52:18.389Z,9.09
2022-12-23T02:54:53.129Z,9.10
2022-12-23T02:57:27.045Z,9.09
2022-12-23T02:59:57.649Z,9.08
2022-12-23T03:02:25.307Z,9.09
2022-12-23T03:04:52.606Z,9.09
2022-12-23T03:07:39.123Z,9.09
2022-12-23T03:10:37.737Z,9.10
2022-12-23T03:13:49.260Z,9.11
2022-12-23T03:16:39.802Z,9.07
2022-12-23T03:19:27.863Z,9.10
2022-12-23T03:22:03.083Z,9.08
2022-12-23T03:25:26.499Z,9.08
2022-12-23T03:28:15.760Z,9.07
2022-12-23T03:30:49.001Z,9.05
2022-12-23T03:33:30.690Z,9.05
2022-12-23T03:36:05.904Z,9.05
2022-12-23T03:38:36.486Z,9.06
2022-12-23T03:41:11.346Z,9.05
2022-12-23T03:43:50.869Z,9.05
2022-12-23T03:46:34.318Z,9.04
2022-12-23T03:49:07.624Z,9.05
2022-12-23T03:51:45.980Z,9.04
2022-12-23T03:54:21.241Z,9.03
2022-12-23T03:57:01.449Z,9.01
2022-12-23T03:59:34.290Z,9.01
2022-12-23T04:02:09.717Z,8.99
2022-12-23T04:05:12.754Z,9.00
2022-12-23T04:08:27.302Z,9.00
2022-12-23T04:10:54.552Z,9.00
2022-12-23T04:13:21.654Z,8.99
2022-12-23T04:15:48.840Z,8.99
2022-12-23T04:18:16.468Z,8.99
2022-12-23T04:20:43.595Z,8.97
2022-12-23T04:23:10.749Z,8.99
2022-12-23T04:25:37.888Z,8.99
2022-12-23T04:28:05.449Z,8.99
2022-12-23T04:30:34.584Z,8.99
2022-12-23T04:33:02.540Z,8.97
2022-12-23T04:35:30.863Z,8.99
2022-12-23T04:37:58.014Z,8.97
2022-12-23T04:40:25.110Z,8.97
2022-12-23T04:42:52.190Z,8.95
2022-12-23T04:45:19.430Z,8.93
2022-12-23T04:47:46.567Z,8.93
2022-12-23T04:50:17.208Z,8.92
2022-12-23T04:52:44.658Z,8.92
2022-12-23T04:55:12.442Z,8.92
2022-12-23T04:57:40.024Z,8.91
2022-12-23T05:00:08.254Z,8.90
2022-12-23T05:02:35.444Z,8.91
2022-12-23T05:05:02.700Z,8.92
2022-12-23T05:07:30.083Z,8.91
2022-12-23T05:10:01.617Z,8.93
2022-12-23T05:12:30.107Z,8.94
2022-12-23T05:14:57.492Z,8.93
2022-12-23T05:17:24.646Z,8.92
2022-12-23T05:19:51.737Z,8.94
2022-12-23T05:22:18.853Z,8.95
2022-12-23T05:24:46.571Z,8.96
2022-12-23T05:27:13.706Z,8.95
2022-12-23T05:29:40.764Z,8.95
2022-12-23T05:32:08.325Z,8.95
2022-12-23T05:34:35.812Z,8.95
2022-12-23T05:37:02.967Z,8.95
2022-12-23T05:39:30.064Z,8.94
2022-12-23T05:41:57.180Z,8.94
2022-12-23T05:44:24.576Z,8.94
2022-12-23T05:46:51.659Z,8.92
2022-12-23T05:49:18.849Z,8.93
2022-12-23T05:51:46.478Z,8.93
2022-12-23T05:54:13.737Z,8.91
2022-12-23T05:56:41.135Z,8.91
2022-12-23T05:59:08.199Z,8.89
2022-12-23T06:01:35.353Z,8.90
2022-12-23T06:04:03.019Z,8.90
2022-12-23T06:06:31.319Z,8.90
2022-12-23T06:09:00.106Z,8.89
2022-12-23T06:11:28.148Z,8.89
2022-12-23T06:13:55.272Z,8.88
2022-12-23T06:16:22.423Z,8.87
2022-12-23T06:18:49.553Z,8.87
2022-12-23T06:21:16.855Z,8.87
2022-12-23T06:23:44.850Z,8.85
2022-12-23T06:26:11.955Z,8.85
2022-12-23T06:28:39.106Z,8.83
2022-12-23T06:31:06.310Z,8.84
2022-12-23T06:33:33.873Z,8.82
2022-12-23T06:36:01.435Z,8.81
2022-12-23T06:38:28.894Z,8.79
2022-12-23T06:40:55.999Z,8.79
2022-12-23T06:43:23.160Z,8.79
2022-12-23T06:45:50.834Z,8.79
2022-12-23T06:48:18.657Z,8.79
2022-12-23T06:50:46.322Z,8.75
2022-12-23T06:53:13.625Z,8.76
2022-12-23T06:55:43.899Z,8.75
2022-12-23T06:58:11.411Z,8.76
2022-12-23T07:00:38.864Z,8.77
2022-12-23T07:03:06.459Z,8.75
2022-12-23T07:05:37.631Z,8.75
2022-12-23T07:08:05.688Z,8.75
2022-12-23T07:10:34.487Z,8.74
2022-12-23T07:13:02.077Z,8.74
2022-12-23T07:15:29.337Z,8.72
2022-12-23T07:17:56.629Z,8.73
2022-12-23T07:20:23.870Z,8.72
2022-12-23T07:22:53.941Z,8.74
2022-12-23T07:25:21.846Z,8.75
2022-12-23T07:27:52.535Z,8.75
2022-12-23T07:30:19.706Z,8.78
2022-12-23T07:32:50.945Z,8.72
2022-12-23T07:35:19.276Z,8.80
2022-12-23T07:37:50.582Z,8.80
2022-12-23T07:40:18.172Z,8.80
2022-12-23T07:42:53.705Z,8.81
2022-12-23T07:45:21.183Z,8.81
2022-12-23T07:47:51.744Z,8.82
2022-12-23T07:50:19.213Z,8.82
2022-12-23T07:52:46.685Z,8.83
2022-12-23T07:55:13.988Z,8.83
2022-12-23T07:57:41.273Z,8.83
2022-12-23T08:00:14.177Z,8.84
2022-12-23T08:02:42.106Z,8.83
2022-12-23T08:05:10.657Z,8.81
2022-12-23T08:07:38.141Z,8.81
2022-12-23T08:10:06.488Z,8.81
2022-12-23T08:12:33.979Z,8.83
2022-12-23T08:15:01.429Z,8.84
2022-12-23T08:17:31.856Z,8.84
2022-12-23T08:19:59.016Z,8.81
2022-12-23T08:22:26.125Z,8.83
2022-12-23T08:24:53.585Z,8.83
2022-12-23T08:27:21.101Z,8.84
2022-12-23T08:29:48.270Z,8.85
2022-12-23T08:32:15.384Z,8.86
2022-12-23T08:34:42.528Z,8.87
2022-12-23T08:37:09.824Z,8.86
2022-12-23T08:39:36.936Z,8.88
2022-12-23T08:42:04.424Z,8.89
2022-12-23T08:44:32.625Z,8.89
2022-12-23T08:46:59.989Z,8.87
2022-12-23T08:49:27.161Z,8.85
2022-12-23T08:51:54.277Z,8.85
2022-12-23T08:54:23.765Z,8.86
2022-12-23T08:56:50.952Z,8.85
2022-12-23T08:59:19.814Z,8.85
2022-12-23T09:01:48.385Z,8.83
2022-12-23T09:04:15.759Z,8.86
2022-12-23T09:06:45.690Z,8.87
2022-12-23T09:09:15.490Z,8.86
2022-12-23T09:11:42.922Z,8.87
2022-12-23T09:14:11.636Z,8.89
2022-12-23T09:16:39.643Z,8.87
2022-12-23T09:19:07.928Z,8.85
2022-12-23T09:21:35.722Z,8.85
2022-12-23T09:24:03.327Z,8.86
2022-12-23T09:26:31.739Z,8.88
2022-12-23T09:29:00.100Z,8.86
2022-12-23T09:31:32.615Z,8.86
2022-12-23T09:34:03.508Z,8.85
2022-12-23T09:36:30.676Z,8.85
2022-12-23T09:38:58.678Z,8.86
2022-12-23T09:41:48.529Z,8.87
2022-12-23T09:45:00.103Z,8.85
2022-12-23T09:47:31.464Z,8.84
2022-12-23T09:50:04.198Z,8.85
2022-12-23T09:53:08.205Z,8.85
2022-12-23T09:56:16.538Z,8.85
2022-12-23T09:59:05.983Z,8.86
2022-12-23T10:02:05.501Z,8.82
2022-12-23T10:04:49.869Z,8.88
2022-12-23T10:07:33.841Z,8.86
2022-12-23T10:10:27.016Z,8.88
2022-12-23T10:12:55.739Z,8.90
2022-12-23T10:15:43.279Z,8.90
2022-12-23T10:18:40.045Z,8.90
2022-12-23T10:21:31.530Z,8.89
2022-12-23T10:24:05.932Z,8.91
2022-12-23T10:26:41.579Z,8.92
2022-12-23T10:29:19.684Z,8.92
2022-12-23T10:32:11.988Z,8.93
2022-12-23T10:35:18.672Z,8.89
2022-12-23T10:38:07.576Z,8.89
2022-12-23T10:41:08.808Z,8.90
2022-12-23T10:44:11.814Z,8.91
2022-12-23T10:47:19.593Z,8.91
2022-12-23T10:50:01.848Z,8.94
2022-12-23T10:52:34.561Z,8.92
2022-12-23T10:55:02.055Z,8.92
2022-12-23T10:57:30.138Z,8.93
2022-12-23T10:59:58.158Z,8.94
2022-12-23T11:03:23.430Z,8.91
2022-12-23T11:05:53.466Z,8.92
2022-12-23T11:08:22.654Z,8.94
2022-12-23T11:10:50.261Z,8.95
2022-12-23T11:13:39.698Z,8.98
2022-12-23T11:16:29.087Z,8.99
2022-12-23T11:19:13.828Z,8.99
2022-12-23T11:21:58.518Z,9.00
2022-12-23T11:24:28.375Z,9.01
2022-12-23T11:27:11.776Z,9.01
2022-12-23T11:29:49.491Z,9.01
2022-12-23T11:32:25.745Z,9.01
2022-12-23T11:34:53.957Z,8.99
2022-12-23T11:37:44.419Z,8.98
2022-12-23T11:40:34.327Z,8.96
2022-12-23T11:43:16.303Z,8.96
2022-12-23T11:45:43.876Z,8.96
2022-12-23T11:48:29.746Z,8.95
2022-12-23T11:51:02.779Z,8.93
2022-12-23T11:53:31.416Z,8.93
2022-12-23T11:56:12.553Z,8.93
2022-12-23T11:58:53.966Z,8.90
2022-12-23T12:01:25.156Z,8.91
2022-12-23T12:04:03.355Z,8.88
2022-12-23T12:06:32.307Z,8.89
2022-12-23T12:09:03.858Z,8.88
2022-12-23T12:11:46.479Z,8.81
2022-12-23T12:14:41.032Z,8.84
2022-12-23T12:17:17.283Z,8.82
2022-12-23T12:20:02.540Z,8.81
2022-12-23T12:22:56.465Z,8.84
2022-12-23T12:25:55.663Z,8.76
2022-12-23T12:28:49.989Z,8.79
2022-12-23T12:31:47.304Z,8.78
2022-12-23T12:34:53.989Z,8.77
2022-12-23T12:37:43.454Z,8.76
2022-12-23T12:40:46.461Z,8.73
2022-12-23T12:43:39.601Z,8.77
2022-12-23T12:46:25.859Z,8.78
2022-12-23T12:49:31.274Z,8.80
2022-12-23T12:52:15.243Z,8.82
2022-12-23T12:54:49.061Z,8.84
2022-12-23T12:57:20.300Z,8.86
2022-12-23T12:59:53.721Z,8.94
2022-12-23T13:02:23.414Z,8.91
2022-12-23T13:05:11.171Z,8.99
2022-12-23T13:07:44.908Z,8.96
2022-12-23T13:10:12.490Z,9.08
2022-12-23T13:13:08.179Z,8.98
2022-12-23T13:16:04.929Z,8.99
2022-12-23T13:18:38.502Z,9.03
2022-12-23T13:21:34.486Z,9.02
2022-12-23T13:24:38.380Z,9.03
2022-12-23T13:27:39.518Z,9.08
2022-12-23T13:30:23.718Z,9.06
2022-12-23T13:33:26.178Z,9.08
2022-12-23T13:36:54.156Z,9.03
2022-12-23T13:39:40.174Z,9.01
2022-12-23T13:42:19.180Z,8.95
2022-12-23T13:44:47.387Z,8.90
2022-12-23T13:48:04.301Z,8.92
2022-12-23T13:50:53.156Z,8.92
2022-12-23T13:54:03.850Z,8.94
2022-12-23T13:57:14.643Z,8.95
2022-12-23T13:59:58.480Z,8.87
2022-12-23T14:02:48.809Z,8.83
2022-12-23T14:05:41.127Z,8.81
2022-12-23T14:08:27.057Z,8.78
2022-12-23T14:11:09.154Z,8.77
2022-12-23T14:13:51.124Z,8.78
2022-12-23T14:17:03.778Z,8.84
2022-12-23T14:20:36.006Z,8.85
2022-12-23T14:23:33.787Z,8.84
2022-12-23T14:26:34.204Z,8.82
2022-12-23T14:29:07.207Z,8.81
2022-12-23T14:31:53.895Z,8.76
2022-12-23T14:34:22.840Z,8.76
2022-12-23T14:37:16.411Z,8.75
2022-12-23T14:39:44.131Z,8.74
2022-12-23T14:42:16.409Z,8.77
2022-12-23T14:44:49.747Z,8.80
2022-12-23T14:47:31.718Z,8.78
2022-12-23T14:50:30.839Z,8.81
2022-12-23T14:53:05.096Z,8.79
2022-12-23T14:55:33.001Z,8.77
2022-12-23T14:58:13.229Z,8.81
2022-12-23T15:00:52.765Z,8.72
2022-12-23T15:03:20.712Z,8.67
2022-12-23T15:05:48.550Z,8.65
2022-12-23T15:08:40.165Z,8.68
2022-12-23T15:11:15.717Z,8.65
2022-12-23T15:13:43.207Z,8.62
2022-12-23T15:16:18.843Z,8.65
2022-12-23T15:18:55.613Z,8.61
2022-12-23T15:21:36.098Z,8.59
2022-12-23T15:24:03.293Z,8.57
2022-12-23T15:26:32.824Z,8.57
2022-12-23T15:29:00.904Z,8.61
2022-12-23T15:31:35.832Z,8.65
2022-12-23T15:34:15.056Z,8.70
2022-12-23T15:36:45.751Z,8.72
2022-12-23T15:39:41.696Z,8.76
2022-12-23T15:42:31.811Z,8.80
2022-12-23T15:44:58.978Z,8.82
2022-12-23T15:47:36.256Z,8.85
2022-12-23T15:50:12.411Z,8.87
2022-12-23T15:52:43.077Z,8.88
2022-12-23T15:55:28.933Z,8.89
2022-12-23T15:57:56.889Z,8.93
2022-12-23T16:01:00.235Z,8.95
2022-12-23T16:03:39.402Z,8.99
2022-12-23T16:06:11.054Z,9.02
2022-12-23T16:08:38.628Z,9.03
2022-12-23T16:11:20.919Z,9.05
2022-12-23T16:14:21.118Z,9.06
2022-12-23T16:16:50.869Z,9.06
2022-12-23T16:19:41.269Z,9.09
2022-12-23T16:22:38.123Z,9.11
2022-12-23T16:25:24.796Z,9.13
2022-12-23T16:28:07.776Z,9.18
2022-12-23T16:30:41.959Z,9.21
2022-12-23T16:33:33.870Z,9.29
2022-12-23T16:36:25.450Z,9.37
2022-12-23T16:39:20.280Z,9.44
2022-12-23T16:41:48.569Z,9.53
2022-12-23T16:44:16.714Z,9.60
2022-12-23T16:46:48.824Z,9.69
2022-12-23T16:49:20.652Z,9.78
2022-12-23T16:51:48.544Z,9.85
2022-12-23T16:54:20.518Z,9.91
2022-12-23T16:56:47.701Z,9.94
2022-12-23T16:59:15.116Z,9.98
2022-12-23T17:01:46.344Z,9.99
2022-12-23T17:04:14.242Z,10.03
2022-12-23T17:06:41.880Z,10.04
2022-12-23T17:09:11.533Z,10.04
2022-12-23T17:11:46.832Z,10.06
2022-12-23T17:14:24.234Z,10.06
2022-12-23T17:16:52.712Z,10.07
2022-12-23T17:19:27.649Z,10.06
2022-12-23T17:22:02.238Z,10.01
2022-12-23T17:24:29.558Z,10.05
2022-12-23T17:26:57.778Z,10.06
2022-12-23T17:29:25.302Z,10.05
2022-12-23T17:31:52.902Z,10.03
2022-12-23T17:34:24.241Z,10.05
2022-12-23T17:36:51.808Z,10.04
2022-12-23T17:39:21.667Z,10.04
2022-12-23T17:41:49.565Z,10.07
2022-12-23T17:44:18.377Z,10.07
2022-12-23T17:46:49.481Z,10.05
2022-12-23T17:49:16.672Z,10.08
2022-12-23T17:51:43.911Z,10.05
2022-12-23T17:54:24.046Z,10.07
2022-12-23T17:56:57.226Z,10.08
2022-12-23T17:59:24.322Z,10.10
2022-12-23T18:01:51.995Z,10.14
2022-12-23T18:04:19.978Z,10.18
2022-12-23T18:06:47.177Z,10.22
2022-12-23T18:09:14.294Z,10.29
2022-12-23T18:11:46.605Z,10.31
2022-12-23T18:14:26.771Z,10.37
2022-12-23T18:16:53.972Z,10.37
2022-12-23T18:19:21.832Z,10.40
2022-12-23T18:21:50.519Z,10.42
2022-12-23T18:24:18.341Z,10.43
2022-12-23T18:26:46.258Z,10.43
2022-12-23T18:29:13.658Z,10.39
2022-12-23T18:31:50.911Z,10.30
2022-12-23T18:34:18.626Z,10.21
2022-12-23T18:36:46.297Z,10.14
2022-12-23T18:39:13.900Z,10.09
2022-12-23T18:41:40.997Z,10.05
2022-12-23T18:44:20.709Z,9.98
2022-12-23T18:46:49.339Z,9.98
2022-12-23T18:49:16.705Z,9.96
2022-12-23T18:51:43.956Z,9.91
2022-12-23T18:54:17.242Z,9.91
2022-12-23T18:56:44.468Z,9.90
2022-12-23T18:59:22.528Z,9.87
2022-12-23T19:01:56.212Z,9.85
2022-12-23T19:04:23.398Z,9.82
2022-12-23T19:06:50.492Z,9.82
2022-12-23T19:09:20.988Z,9.82
2022-12-23T19:11:51.224Z,9.81
2022-12-23T19:14:18.545Z,9.77
2022-12-23T19:16:51.150Z,9.78
2022-12-23T19:19:18.729Z,9.78
2022-12-23T19:21:45.924Z,9.77
2022-12-23T19:24:14.039Z,9.75
2022-12-23T19:26:41.246Z,9.75
2022-12-23T19:29:09.237Z,9.73
2022-12-23T19:31:36.384Z,9.72
2022-12-23T19:34:03.620Z,9.73
2022-12-23T19:36:31.265Z,9.72
2022-12-23T19:38:58.633Z,9.73
2022-12-23T19:41:26.236Z,9.68
2022-12-23T19:43:53.518Z,9.71
2022-12-23T19:46:20.985Z,9.71
2022-12-23T19:48:54.935Z,9.69
2022-12-23T19:51:22.211Z,9.71
2022-12-23T19:53:51.599Z,9.69
2022-12-23T19:56:22.823Z,9.70
2022-12-23T19:58:50.809Z,9.72
2022-12-23T20:01:25.088Z,9.69
2022-12-23T20:03:55.235Z,9.73
2022-12-23T20:06:33.027Z,9.71
2022-12-23T20:09:04.236Z,9.69
2022-12-23T20:11:44.086Z,9.69
2022-12-23T20:14:14.128Z,9.68
2022-12-23T20:16:42.244Z,9.68
2022-12-23T20:19:10.208Z,9.67
2022-12-23T20:21:37.685Z,9.68
2022-12-23T20:24:06.152Z,9.69
2022-12-23T20:26:33.812Z,9.65
2022-12-23T20:29:00.954Z,9.66
2022-12-23T20:31:31.370Z,9.63
2022-12-23T20:34:00.489Z,9.62
2022-12-23T20:36:33.591Z,9.61
2022-12-23T20:39:03.318Z,9.58
2022-12-23T20:41:31.686Z,9.57
2022-12-23T20:46:47.038Z,9.51
2022-12-23T20:49:14.224Z,9.49
2022-12-23T20:51:41.319Z,9.46
2022-12-23T20:54:09.288Z,9.45
2022-12-23T20:56:36.753Z,9.44
2022-12-23T20:59:04.109Z,9.42
2022-12-23T21:01:36.831Z,9.40
2022-12-23T21:04:08.554Z,9.38
2022-12-23T21:06:36.642Z,9.36
2022-12-23T21:09:07.443Z,9.37
2022-12-23T21:11:38.424Z,9.33
2022-12-23T21:14:07.300Z,9.33
2022-12-23T21:16:37.474Z,9.33
2022-12-23T21:19:08.190Z,9.32
2022-12-23T21:21:35.894Z,9.30
2022-12-23T21:24:04.712Z,9.28
2022-12-23T21:26:34.558Z,9.25
2022-12-23T21:29:04.370Z,9.23
2022-12-23T21:31:34.648Z,9.23
2022-12-23T21:34:02.581Z,9.21
2022-12-23T21:36:33.963Z,9.25
2022-12-23T21:39:01.631Z,9.28
2022-12-23T21:41:34.118Z,9.32
2022-12-23T21:44:02.287Z,9.37
2022-12-23T21:46:30.235Z,9.42
2022-12-23T21:48:58.788Z,9.49
2022-12-23T21:51:39.485Z,9.54
2022-12-23T21:54:09.931Z,9.57
2022-12-23T21:56:37.632Z,9.61
2022-12-23T21:59:13.723Z,9.65
2022-12-23T22:01:42.578Z,9.68
2022-12-23T22:04:10.010Z,9.70
2022-12-23T22:06:43.403Z,9.74
2022-12-23T22:09:15.017Z,9.75
2022-12-23T22:11:42.988Z,9.78
2022-12-23T22:14:13.563Z,9.78
2022-12-23T22:16:41.382Z,9.80
2022-12-23T22:19:11.997Z,9.81
2022-12-23T22:21:39.864Z,9.79
2022-12-23T22:24:07.817Z,9.82
2022-12-23T22:26:36.310Z,9.81
2022-12-23T22:29:06.423Z,9.72
2022-12-23T22:31:50.238Z,9.61
2022-12-23T22:34:21.073Z,9.48
2022-12-23T22:36:49.147Z,9.40
2022-12-23T22:39:21.157Z,9.35
2022-12-23T22:41:50.689Z,9.29
2022-12-23T22:44:19.068Z,9.25
2022-12-23T22:46:46.386Z,9.23
2022-12-23T22:49:15.180Z,9.17
2022-12-23T22:51:43.488Z,9.16
2022-12-23T22:54:10.675Z,9.14
2022-12-23T22:56:38.022Z,9.15
2022-12-23T22:59:05.984Z,9.18
2022-12-23T23:01:36.162Z,9.20
2022-12-23T23:04:04.812Z,9.21
2022-12-23T23:06:38.865Z,9.24
2022-12-23T23:09:17.222Z,9.28
2022-12-23T23:11:45.010Z,9.32
2022-12-23T23:14:12.853Z,9.38
2022-12-23T23:16:40.366Z,9.43
2022-12-23T23:19:09.153Z,9.45
2022-12-23T23:21:37.823Z,9.48
2022-12-23T23:24:05.936Z,9.49
2022-12-23T23:26:33.182Z,9.46
2022-12-23T23:29:00.246Z,9.41
2022-12-23T23:31:44.030Z,9.41
2022-12-23T23:34:13.084Z,9.39
2022-12-23T23:36:40.660Z,9.39
2022-12-23T23:39:09.011Z,9.38
2022-12-23T23:41:36.111Z,9.38
2022-12-23T23:44:03.563Z,9.36
2022-12-23T23:46:31.826Z,9.33
2022-12-23T23:48:59.417Z,9.29
2022-12-23T23:51:27.694Z,9.28
2022-12-23T23:53:54.907Z,9.25
2022-12-23T23:56:25.680Z,9.24
2022-12-23T23:58:54.154Z,9.21
